Pagrindinis puslapis
METAR-TAF:

METAR-TAF

Oro uostai :

Passo Rolle, Italija

platuma: 46-18N, ilguma: 011-47E, Aukštis: 2004 m

Dabartinis oras

Ataskaita buvo paskelbta 2 valandos ir 2 minutes, ne 20:55 UTC
Vėjas 13 kt iš Pietryčių
Temperatūra -4°C
Drėgmė 93%
Slėgis 1010 hPa
Matomumas: 0050 m
įšaldymas rūko

METAR: LIVR 272055Z 14013KT 0050 FZFG VV/// M04/M05 Q1010 RMK MON INVIS VIS MIN 0050

Laikas: 23:57 (22:57 UTC)


TAF: trūkstamas

Orai ataskaitas ir orų prognozės (METAR, TAF).

turimą stotys yra geltonos ir raudonos taškus žemėlapyje.

Perkelti pele per norėdami pamatyti stoties vardą.

Tada spustelėkite, norėdami matyti oro stebėjimo ir prognozės.

Norėdami pakeisti žemėlapį: spustelėkite ant žalios mygtukų su juodo kryžiaus žemyn,; žalią mygtuką su brūkšneliu, jei norite nutolinti; arba žalių rodyklių gretimoms žemėlapius.


METAR-TAF: